LIBGKCHS

Guest
Details From LIBG - GROTTAGLIE
To KCHS - Charleston AFB Intl
Flight Number -
Tags decoded
Created
Modified
Stats Distance 4,464 nm / 8,267 km
Max Altitude 0 ft / 0 m
Waypoints 2
Social Downloads 0
Likes 0
Share VATSIM

Download

Looking for another format? Having issues loading an existing format? Contact us
Advertisement - Login to hide

Notes

Requested: LIBG 4045N01715E KCHS

Route

LIBG KCHS

ID Type Via Altitude Latitude Longitude Leg Dist Tot Dist Heading (true) Name
O LIBG APT - 0 ft / 0 m 40.51751˚ 17.40321˚ - 0 nm - GROTTAGLIE
O KCHS APT - 0 ft / 0 m 32.89808˚ -80.04056˚ 4463 nm 4463 nm 300° / 232° Charleston AFB Intl

Altitude Profile

Advertisement - Login to hide

Weather


0- 5 10 15 20 25 30 35+ Temperature / ° C

Clouds and Precipitation
Forecast for 2017-12-12 18:00 UTC. Updated 38 minutes ago

Ground ~20,000 ft ~40,000 ft Winds

LIBG

Details ICAO LIBG (TAR)
Name GROTTAGLIE
Region Italy
Timezone Europe/Rome (UTC+1.0)
Stats Elevation 215 ft / 66 m (AMSL)
Location 40.517513° 17.403211°
Runways 1
Magnetic Variation 3.793° E

METAR

LIBG 121650Z VRB02KT 9999 FEW008 14/13 Q1017

Decode

TAF

Not found

Departure Runways

ID Width Length Bearing (true) Bearing (mag) Surface Threshold Offset Overrun Length
17 148 ft / 45 m 10,509 ft / 3,203 m 168.69° 164.90° Asphalt 1,378 ft / 420 m 0 ft / 0 m
35 148 ft / 45 m 10,509 ft / 3,203 m 348.69° 344.90° Asphalt 1,247 ft / 380 m 0 ft / 0 m

KCHS

Details ICAO KCHS (CHS)
Name Charleston AFB Intl
Region United States
Timezone America/New_York (UTC-5.0)
Stats Elevation 45 ft / 14 m (AMSL)
Location 32.898080° -80.040556°
Runways 2
Magnetic Variation 7.890° W

METAR

KCHS 121656Z 26009KT 10SM FEW250 17/07 A2974 RMK AO2 SLP069 T01670067

Decode

TAF

TAF KCHS 121732Z 1218/1318 26012KT P6SM FEW250 FM121900 28014G22KT P6SM FEW250 FM130200 32008KT P6SM SKC FM131600 28006KT P6SM SKC

Decode

Destination Runways

ID Width Length Bearing (true) Bearing (mag) Surface Threshold Offset Overrun Length
03 150 ft / 46 m 7,019 ft / 2,140 m 24.30° 32.19° Asphalt 0 ft / 0 m 0 ft / 0 m
15 200 ft / 61 m 9,014 ft / 2,748 m 147.54° 155.43° Concrete 0 ft / 0 m 1,000 ft / 305 m
21 150 ft / 46 m 7,019 ft / 2,140 m 204.31° 212.20° Asphalt 0 ft / 0 m 0 ft / 0 m
33 200 ft / 61 m 9,014 ft / 2,748 m 327.55° 335.44° Concrete 0 ft / 0 m 1,000 ft / 305 m

Approach Navaids

Runway Type Ident Frequency Range Bearing (true) Bearing (mag) Slope Elevation
15 Localiser ICHS 109.70 MHz 18 nm / 33 km 147.54° 155.43° - 26 ft / 8 m (AMSL)
15 Glidescope ICHS 109.70 MHz 10 nm / 19 km 147.54° 155.43° 3.00° 37 ft / 11 m (AMSL)
33 Localiser ICCI 108.90 MHz 18 nm / 33 km 327.53° 335.42° - 44 ft / 13 m (AMSL)
33 Glidescope ICCI 108.90 MHz 10 nm / 19 km 327.54° 335.43° 3.00° 43 ft / 13 m (AMSL)

Popular Alternatives